sensor_id;sensor_type;location;lat;lon;timestamp;P1;durP1;ratioP1;P2;durP2;ratioP2
5819;SDS011;2936;47.348;9.640;2023-11-21T00:01:15;4.68;;;4.18;;
5819;SDS011;2936;47.348;9.640;2023-11-21T00:03:43;8.73;;;3.72;;
5819;SDS011;2936;47.348;9.640;2023-11-21T00:06:10;4.07;;;3.70;;
5819;SDS011;2936;47.348;9.640;2023-11-21T00:08:38;5.68;;;3.95;;
5819;SDS011;2936;47.348;9.640;2023-11-21T00:11:05;4.18;;;3.83;;
5819;SDS011;2936;47.348;9.640;2023-11-21T00:13:33;4.45;;;4.15;;
5819;SDS011;2936;47.348;9.640;2023-11-21T00:16:02;5.38;;;4.75;;
5819;SDS011;2936;47.348;9.640;2023-11-21T00:18:30;7.07;;;3.90;;
5819;SDS011;2936;47.348;9.640;2023-11-21T00:20:58;5.20;;;4.68;;
5819;SDS011;2936;47.348;9.640;2023-11-21T00:23:25;5.45;;;3.83;;
5819;SDS011;2936;47.348;9.640;2023-11-21T00:25:52;6.35;;;4.40;;
5819;SDS011;2936;47.348;9.640;2023-11-21T00:28:20;3.85;;;3.65;;
5819;SDS011;2936;47.348;9.640;2023-11-21T00:30:48;4.07;;;3.88;;
5819;SDS011;2936;47.348;9.640;2023-11-21T00:33:16;4.85;;;4.25;;
5819;SDS011;2936;47.348;9.640;2023-11-21T00:35:44;7.35;;;4.55;;
5819;SDS011;2936;47.348;9.640;2023-11-21T00:38:12;8.55;;;3.90;;
5819;SDS011;2936;47.348;9.640;2023-11-21T00:40:39;3.90;;;3.70;;
5819;SDS011;2936;47.348;9.640;2023-11-21T00:43:07;4.15;;;3.88;;
5819;SDS011;2936;47.348;9.640;2023-11-21T00:45:34;6.78;;;4.00;;
5819;SDS011;2936;47.348;9.640;2023-11-21T00:48:03;4.18;;;3.88;;
5819;SDS011;2936;47.348;9.640;2023-11-21T00:50:32;10.25;;;4.32;;
5819;SDS011;2936;47.348;9.640;2023-11-21T00:52:59;3.88;;;3.78;;
5819;SDS011;2936;47.348;9.640;2023-11-21T00:55:28;3.97;;;3.65;;
5819;SDS011;2936;47.348;9.640;2023-11-21T00:57:55;4.00;;;3.80;;
5819;SDS011;2936;47.348;9.640;2023-11-21T01:00:23;6.80;;;4.53;;
5819;SDS011;2936;47.348;9.640;2023-11-21T01:02:51;4.03;;;3.75;;
5819;SDS011;2936;47.348;9.640;2023-11-21T01:05:18;7.93;;;4.18;;
5819;SDS011;2936;47.348;9.640;2023-11-21T01:07:48;4.00;;;3.80;;
5819;SDS011;2936;47.348;9.640;2023-11-21T01:10:15;4.80;;;4.45;;
5819;SDS011;2936;47.348;9.640;2023-11-21T01:12:42;5.25;;;4.25;;
5819;SDS011;2936;47.348;9.640;2023-11-21T01:15:10;4.38;;;4.07;;
5819;SDS011;2936;47.348;9.640;2023-11-21T01:17:38;8.52;;;4.15;;
5819;SDS011;2936;47.348;9.640;2023-11-21T01:20:06;3.42;;;3.13;;
5819;SDS011;2936;47.348;9.640;2023-11-21T01:22:37;6.82;;;4.03;;
5819;SDS011;2936;47.348;9.640;2023-11-21T01:25:06;7.80;;;3.95;;
5819;SDS011;2936;47.348;9.640;2023-11-21T01:27:34;4.70;;;4.40;;
5819;SDS011;2936;47.348;9.640;2023-11-21T01:30:04;3.47;;;3.38;;
5819;SDS011;2936;47.348;9.640;2023-11-21T01:32:33;3.60;;;3.33;;
5819;SDS011;2936;47.348;9.640;2023-11-21T01:35:00;4.15;;;3.80;;
5819;SDS011;2936;47.348;9.640;2023-11-21T01:37:28;3.90;;;3.65;;
5819;SDS011;2936;47.348;9.640;2023-11-21T01:39:55;3.95;;;3.75;;
5819;SDS011;2936;47.348;9.640;2023-11-21T01:42:25;4.55;;;4.20;;
5819;SDS011;2936;47.348;9.640;2023-11-21T01:44:54;6.10;;;4.78;;
5819;SDS011;2936;47.348;9.640;2023-11-21T01:47:22;4.32;;;4.03;;
5819;SDS011;2936;47.348;9.640;2023-11-21T01:49:49;6.75;;;4.22;;
5819;SDS011;2936;47.348;9.640;2023-11-21T01:52:17;6.43;;;5.22;;
5819;SDS011;2936;47.348;9.640;2023-11-21T01:54:45;5.50;;;3.78;;
5819;SDS011;2936;47.348;9.640;2023-11-21T01:57:13;3.83;;;3.60;;
5819;SDS011;2936;47.348;9.640;2023-11-21T01:59:42;4.57;;;4.28;;
5819;SDS011;2936;47.348;9.640;2023-11-21T02:02:10;3.78;;;3.58;;
5819;SDS011;2936;47.348;9.640;2023-11-21T02:04:37;4.78;;;4.38;;
5819;SDS011;2936;47.348;9.640;2023-11-21T02:07:06;3.88;;;3.50;;
5819;SDS011;2936;47.348;9.640;2023-11-21T02:09:33;3.80;;;3.60;;
5819;SDS011;2936;47.348;9.640;2023-11-21T02:12:03;4.50;;;3.80;;
5819;SDS011;2936;47.348;9.640;2023-11-21T02:14:31;5.57;;;3.60;;
5819;SDS011;2936;47.348;9.640;2023-11-21T02:17:00;4.22;;;3.88;;
5819;SDS011;2936;47.348;9.640;2023-11-21T02:19:28;3.85;;;3.65;;
5819;SDS011;2936;47.348;9.640;2023-11-21T02:21:57;3.42;;;3.30;;
5819;SDS011;2936;47.348;9.640;2023-11-21T02:24:31;3.80;;;3.53;;
5819;SDS011;2936;47.348;9.640;2023-11-21T02:26:59;4.18;;;3.85;;
5819;SDS011;2936;47.348;9.640;2023-11-21T02:29:26;3.38;;;3.17;;
5819;SDS011;2936;47.348;9.640;2023-11-21T02:31:54;4.72;;;4.00;;
5819;SDS011;2936;47.348;9.640;2023-11-21T02:34:22;10.02;;;3.95;;
5819;SDS011;2936;47.348;9.640;2023-11-21T02:36:50;4.28;;;3.97;;
5819;SDS011;2936;47.348;9.640;2023-11-21T02:39:17;4.57;;;4.32;;
5819;SDS011;2936;47.348;9.640;2023-11-21T02:41:49;4.10;;;3.80;;
5819;SDS011;2936;47.348;9.640;2023-11-21T02:44:16;4.40;;;4.00;;
5819;SDS011;2936;47.348;9.640;2023-11-21T02:46:44;3.95;;;3.33;;
5819;SDS011;2936;47.348;9.640;2023-11-21T02:49:12;3.60;;;3.30;;
5819;SDS011;2936;47.348;9.640;2023-11-21T02:51:39;3.78;;;3.58;;
5819;SDS011;2936;47.348;9.640;2023-11-21T02:54:07;4.00;;;3.70;;
5819;SDS011;2936;47.348;9.640;2023-11-21T02:56:35;3.67;;;3.53;;
5819;SDS011;2936;47.348;9.640;2023-11-21T02:59:04;3.70;;;3.50;;
5819;SDS011;2936;47.348;9.640;2023-11-21T03:01:31;3.83;;;3.53;;
5819;SDS011;2936;47.348;9.640;2023-11-21T03:03:58;17.13;;;4.72;;
5819;SDS011;2936;47.348;9.640;2023-11-21T03:06:26;3.90;;;3.70;;
5819;SDS011;2936;47.348;9.640;2023-11-21T03:08:54;9.73;;;3.97;;
5819;SDS011;2936;47.348;9.640;2023-11-21T03:11:21;4.10;;;3.90;;
5819;SDS011;2936;47.348;9.640;2023-11-21T03:13:49;3.78;;;3.53;;
5819;SDS011;2936;47.348;9.640;2023-11-21T03:16:18;3.85;;;3.55;;
5819;SDS011;2936;47.348;9.640;2023-11-21T03:18:45;4.25;;;3.95;;
5819;SDS011;2936;47.348;9.640;2023-11-21T03:21:13;3.88;;;3.67;;
5819;SDS011;2936;47.348;9.640;2023-11-21T03:23:41;3.85;;;3.63;;
5819;SDS011;2936;47.348;9.640;2023-11-21T03:26:11;4.22;;;4.03;;
5819;SDS011;2936;47.348;9.640;2023-11-21T03:28:39;5.85;;;4.88;;
5819;SDS011;2936;47.348;9.640;2023-11-21T03:31:06;3.72;;;3.42;;
5819;SDS011;2936;47.348;9.640;2023-11-21T03:33:36;4.15;;;3.85;;
5819;SDS011;2936;47.348;9.640;2023-11-21T03:36:03;4.28;;;3.90;;
5819;SDS011;2936;47.348;9.640;2023-11-21T03:38:33;3.45;;;3.25;;
5819;SDS011;2936;47.348;9.640;2023-11-21T03:41:00;3.53;;;3.33;;
5819;SDS011;2936;47.348;9.640;2023-11-21T03:43:28;5.20;;;4.10;;
5819;SDS011;2936;47.348;9.640;2023-11-21T03:45:55;3.72;;;3.42;;
5819;SDS011;2936;47.348;9.640;2023-11-21T03:48:23;3.63;;;3.38;;
5819;SDS011;2936;47.348;9.640;2023-11-21T03:50:52;4.70;;;3.95;;
5819;SDS011;2936;47.348;9.640;2023-11-21T03:53:19;3.47;;;3.17;;
5819;SDS011;2936;47.348;9.640;2023-11-21T03:55:47;4.30;;;3.90;;
5819;SDS011;2936;47.348;9.640;2023-11-21T03:58:15;18.15;;;3.75;;
5819;SDS011;2936;47.348;9.640;2023-11-21T04:00:42;5.00;;;4.60;;
5819;SDS011;2936;47.348;9.640;2023-11-21T04:03:10;3.75;;;3.65;;
5819;SDS011;2936;47.348;9.640;2023-11-21T04:05:38;8.80;;;4.85;;
5819;SDS011;2936;47.348;9.640;2023-11-21T04:08:09;6.63;;;4.68;;
5819;SDS011;2936;47.348;9.640;2023-11-21T04:10:36;3.83;;;3.63;;
5819;SDS011;2936;47.348;9.640;2023-11-21T04:13:05;6.05;;;4.43;;
5819;SDS011;2936;47.348;9.640;2023-11-21T04:15:31;8.73;;;4.35;;
5819;SDS011;2936;47.348;9.640;2023-11-21T04:17:59;4.30;;;4.00;;
5819;SDS011;2936;47.348;9.640;2023-11-21T04:20:27;5.07;;;4.78;;
5819;SDS011;2936;47.348;9.640;2023-11-21T04:22:54;9.82;;;4.78;;
5819;SDS011;2936;47.348;9.640;2023-11-21T04:25:23;6.55;;;4.85;;
5819;SDS011;2936;47.348;9.640;2023-11-21T04:27:51;5.60;;;5.20;;
5819;SDS011;2936;47.348;9.640;2023-11-21T04:30:19;26.10;;;4.55;;
5819;SDS011;2936;47.348;9.640;2023-11-21T04:32:47;4.93;;;4.60;;
5819;SDS011;2936;47.348;9.640;2023-11-21T04:35:16;3.65;;;3.40;;
5819;SDS011;2936;47.348;9.640;2023-11-21T04:37:44;5.28;;;4.88;;
5819;SDS011;2936;47.348;9.640;2023-11-21T04:40:12;6.40;;;5.80;;
5819;SDS011;2936;47.348;9.640;2023-11-21T04:42:42;9.60;;;5.07;;
5819;SDS011;2936;47.348;9.640;2023-11-21T04:45:09;4.57;;;4.28;;
5819;SDS011;2936;47.348;9.640;2023-11-21T04:47:50;16.02;;;4.28;;
5819;SDS011;2936;47.348;9.640;2023-11-21T04:50:18;4.13;;;3.80;;
5819;SDS011;2936;47.348;9.640;2023-11-21T04:52:46;4.57;;;4.18;;
5819;SDS011;2936;47.348;9.640;2023-11-21T04:55:13;4.97;;;4.07;;
5819;SDS011;2936;47.348;9.640;2023-11-21T04:57:42;5.78;;;3.42;;
5819;SDS011;2936;47.348;9.640;2023-11-21T05:00:11;6.50;;;3.55;;
5819;SDS011;2936;47.348;9.640;2023-11-21T05:02:38;3.85;;;3.65;;
5819;SDS011;2936;47.348;9.640;2023-11-21T05:05:07;3.55;;;3.35;;
5819;SDS011;2936;47.348;9.640;2023-11-21T05:07:35;4.20;;;3.85;;
5819;SDS011;2936;47.348;9.640;2023-11-21T05:10:03;4.03;;;3.83;;
5819;SDS011;2936;47.348;9.640;2023-11-21T05:12:33;3.17;;;3.03;;
5819;SDS011;2936;47.348;9.640;2023-11-21T05:15:05;3.40;;;3.10;;
5819;SDS011;2936;47.348;9.640;2023-11-21T05:17:36;4.43;;;3.05;;
5819;SDS011;2936;47.348;9.640;2023-11-21T05:20:07;2.92;;;2.72;;
5819;SDS011;2936;47.348;9.640;2023-11-21T05:22:35;4.20;;;3.13;;
5819;SDS011;2936;47.348;9.640;2023-11-21T05:25:03;3.00;;;2.80;;
5819;SDS011;2936;47.348;9.640;2023-11-21T05:27:31;4.43;;;3.05;;
5819;SDS011;2936;47.348;9.640;2023-11-21T05:29:58;3.35;;;3.10;;
5819;SDS011;2936;47.348;9.640;2023-11-21T05:32:27;10.65;;;3.35;;
5819;SDS011;2936;47.348;9.640;2023-11-21T05:34:54;3.53;;;3.05;;
5819;SDS011;2936;47.348;9.640;2023-11-21T05:37:22;3.28;;;2.97;;
5819;SDS011;2936;47.348;9.640;2023-11-21T05:39:51;3.35;;;3.13;;
5819;SDS011;2936;47.348;9.640;2023-11-21T05:42:18;3.33;;;3.13;;
5819;SDS011;2936;47.348;9.640;2023-11-21T05:44:46;4.43;;;3.85;;
5819;SDS011;2936;47.348;9.640;2023-11-21T05:47:13;3.47;;;3.28;;
5819;SDS011;2936;47.348;9.640;2023-11-21T05:49:42;3.63;;;3.33;;
5819;SDS011;2936;47.348;9.640;2023-11-21T05:52:10;6.38;;;3.60;;
5819;SDS011;2936;47.348;9.640;2023-11-21T05:54:38;3.35;;;3.15;;
5819;SDS011;2936;47.348;9.640;2023-11-21T05:57:05;3.63;;;2.75;;
5819;SDS011;2936;47.348;9.640;2023-11-21T05:59:34;6.72;;;4.05;;
5819;SDS011;2936;47.348;9.640;2023-11-21T06:02:02;3.55;;;3.25;;
5819;SDS011;2936;47.348;9.640;2023-11-21T06:04:30;8.98;;;3.75;;
5819;SDS011;2936;47.348;9.640;2023-11-21T06:06:59;5.10;;;4.25;;
5819;SDS011;2936;47.348;9.640;2023-11-21T06:09:27;9.50;;;3.75;;
5819;SDS011;2936;47.348;9.640;2023-11-21T06:11:54;4.53;;;4.10;;
5819;SDS011;2936;47.348;9.640;2023-11-21T06:14:22;5.43;;;3.85;;
5819;SDS011;2936;47.348;9.640;2023-11-21T06:16:49;5.10;;;4.50;;
5819;SDS011;2936;47.348;9.640;2023-11-21T06:19:17;12.00;;;5.43;;
5819;SDS011;2936;47.348;9.640;2023-11-21T06:21:45;16.00;;;4.57;;
5819;SDS011;2936;47.348;9.640;2023-11-21T06:24:14;19.40;;;5.97;;
5819;SDS011;2936;47.348;9.640;2023-11-21T06:26:42;8.52;;;4.97;;
5819;SDS011;2936;47.348;9.640;2023-11-21T06:29:10;4.50;;;4.20;;
5819;SDS011;2936;47.348;9.640;2023-11-21T06:31:38;6.47;;;4.80;;
5819;SDS011;2936;47.348;9.640;2023-11-21T06:34:06;5.20;;;4.70;;
5819;SDS011;2936;47.348;9.640;2023-11-21T06:36:35;9.10;;;5.75;;
5819;SDS011;2936;47.348;9.640;2023-11-21T06:39:02;5.05;;;4.75;;
5819;SDS011;2936;47.348;9.640;2023-11-21T06:41:34;5.55;;;5.15;;
5819;SDS011;2936;47.348;9.640;2023-11-21T06:44:04;6.70;;;4.53;;
5819;SDS011;2936;47.348;9.640;2023-11-21T06:46:31;5.20;;;4.68;;
5819;SDS011;2936;47.348;9.640;2023-11-21T06:48:59;6.72;;;4.43;;
5819;SDS011;2936;47.348;9.640;2023-11-21T06:51:26;4.50;;;4.20;;
5819;SDS011;2936;47.348;9.640;2023-11-21T06:53:54;5.30;;;4.80;;
5819;SDS011;2936;47.348;9.640;2023-11-21T06:56:21;6.13;;;4.35;;
5819;SDS011;2936;47.348;9.640;2023-11-21T06:58:50;5.63;;;5.13;;
5819;SDS011;2936;47.348;9.640;2023-11-21T07:01:19;6.28;;;5.65;;
5819;SDS011;2936;47.348;9.640;2023-11-21T07:03:46;8.63;;;6.35;;
5819;SDS011;2936;47.348;9.640;2023-11-21T07:06:14;8.25;;;5.60;;
5819;SDS011;2936;47.348;9.640;2023-11-21T07:08:42;6.28;;;5.78;;
5819;SDS011;2936;47.348;9.640;2023-11-21T07:11:09;6.35;;;5.85;;
5819;SDS011;2936;47.348;9.640;2023-11-21T07:13:37;11.70;;;5.70;;
5819;SDS011;2936;47.348;9.640;2023-11-21T07:16:07;12.30;;;6.07;;
5819;SDS011;2936;47.348;9.640;2023-11-21T07:18:35;6.03;;;5.43;;
5819;SDS011;2936;47.348;9.640;2023-11-21T07:21:03;9.98;;;5.75;;
5819;SDS011;2936;47.348;9.640;2023-11-21T07:23:31;6.20;;;5.57;;
5819;SDS011;2936;47.348;9.640;2023-11-21T07:25:58;7.05;;;5.88;;
5819;SDS011;2936;47.348;9.640;2023-11-21T07:28:26;10.38;;;6.05;;
5819;SDS011;2936;47.348;9.640;2023-11-21T07:30:53;6.97;;;5.60;;
5819;SDS011;2936;47.348;9.640;2023-11-21T07:33:22;4.97;;;4.53;;
5819;SDS011;2936;47.348;9.640;2023-11-21T07:35:49;6.35;;;5.80;;
5819;SDS011;2936;47.348;9.640;2023-11-21T07:38:17;6.07;;;5.47;;
5819;SDS011;2936;47.348;9.640;2023-11-21T07:40:44;5.63;;;5.13;;
5819;SDS011;2936;47.348;9.640;2023-11-21T07:43:12;5.18;;;4.65;;
5819;SDS011;2936;47.348;9.640;2023-11-21T07:45:41;5.03;;;4.55;;
5819;SDS011;2936;47.348;9.640;2023-11-21T07:48:08;4.47;;;4.05;;
5819;SDS011;2936;47.348;9.640;2023-11-21T07:50:37;5.30;;;4.90;;
5819;SDS011;2936;47.348;9.640;2023-11-21T07:53:04;3.83;;;3.63;;
5819;SDS011;2936;47.348;9.640;2023-11-21T07:55:31;4.45;;;4.10;;
5819;SDS011;2936;47.348;9.640;2023-11-21T07:57:59;4.60;;;4.20;;
5819;SDS011;2936;47.348;9.640;2023-11-21T08:00:26;8.85;;;4.65;;
5819;SDS011;2936;47.348;9.640;2023-11-21T08:02:55;5.13;;;4.70;;
5819;SDS011;2936;47.348;9.640;2023-11-21T08:05:22;4.93;;;3.70;;
5819;SDS011;2936;47.348;9.640;2023-11-21T08:07:51;8.63;;;4.93;;
5819;SDS011;2936;47.348;9.640;2023-11-21T08:10:19;7.32;;;5.88;;
5819;SDS011;2936;47.348;9.640;2023-11-21T08:12:47;6.10;;;4.38;;
5819;SDS011;2936;47.348;9.640;2023-11-21T08:15:15;4.40;;;4.03;;
5819;SDS011;2936;47.348;9.640;2023-11-21T08:17:43;4.15;;;3.85;;
5819;SDS011;2936;47.348;9.640;2023-11-21T08:20:10;5.22;;;4.75;;
5819;SDS011;2936;47.348;9.640;2023-11-21T08:22:41;5.15;;;4.75;;
5819;SDS011;2936;47.348;9.640;2023-11-21T08:25:10;7.25;;;4.47;;
5819;SDS011;2936;47.348;9.640;2023-11-21T08:27:38;5.20;;;4.20;;
5819;SDS011;2936;47.348;9.640;2023-11-21T08:30:06;5.32;;;4.82;;
5819;SDS011;2936;47.348;9.640;2023-11-21T08:32:33;4.47;;;4.18;;
5819;SDS011;2936;47.348;9.640;2023-11-21T08:35:01;5.28;;;4.75;;
5819;SDS011;2936;47.348;9.640;2023-11-21T08:37:28;4.80;;;4.40;;
5819;SDS011;2936;47.348;9.640;2023-11-21T08:39:58;4.63;;;4.28;;
5819;SDS011;2936;47.348;9.640;2023-11-21T08:42:27;4.93;;;4.53;;
5819;SDS011;2936;47.348;9.640;2023-11-21T08:44:55;11.18;;;5.90;;
5819;SDS011;2936;47.348;9.640;2023-11-21T08:47:23;5.80;;;5.15;;
5819;SDS011;2936;47.348;9.640;2023-11-21T08:49:51;6.40;;;4.78;;
5819;SDS011;2936;47.348;9.640;2023-11-21T08:52:19;9.73;;;4.82;;
5819;SDS011;2936;47.348;9.640;2023-11-21T08:54:48;4.75;;;4.45;;
5819;SDS011;2936;47.348;9.640;2023-11-21T08:57:21;8.27;;;4.75;;
5819;SDS011;2936;47.348;9.640;2023-11-21T08:59:50;4.80;;;4.50;;
5819;SDS011;2936;47.348;9.640;2023-11-21T09:02:21;6.38;;;5.75;;
5819;SDS011;2936;47.348;9.640;2023-11-21T09:04:49;6.32;;;5.72;;
5819;SDS011;2936;47.348;9.640;2023-11-21T09:07:18;5.40;;;5.10;;
5819;SDS011;2936;47.348;9.640;2023-11-21T09:09:46;7.07;;;5.45;;
5819;SDS011;2936;47.348;9.640;2023-11-21T09:12:16;5.45;;;4.95;;
5819;SDS011;2936;47.348;9.640;2023-11-21T09:14:46;5.35;;;5.05;;
5819;SDS011;2936;47.348;9.640;2023-11-21T09:17:17;6.40;;;5.18;;
5819;SDS011;2936;47.348;9.640;2023-11-21T09:19:47;4.60;;;4.30;;
5819;SDS011;2936;47.348;9.640;2023-11-21T09:22:16;6.47;;;5.28;;
5819;SDS011;2936;47.348;9.640;2023-11-21T09:24:44;5.32;;;4.93;;
5819;SDS011;2936;47.348;9.640;2023-11-21T09:27:12;16.42;;;4.65;;
5819;SDS011;2936;47.348;9.640;2023-11-21T09:29:40;10.02;;;5.57;;
5819;SDS011;2936;47.348;9.640;2023-11-21T09:32:08;9.73;;;6.28;;
5819;SDS011;2936;47.348;9.640;2023-11-21T09:34:39;6.53;;;5.97;;
5819;SDS011;2936;47.348;9.640;2023-11-21T09:37:07;6.60;;;5.43;;
5819;SDS011;2936;47.348;9.640;2023-11-21T09:39:34;4.75;;;4.45;;
5819;SDS011;2936;47.348;9.640;2023-11-21T09:42:04;6.20;;;5.70;;
5819;SDS011;2936;47.348;9.640;2023-11-21T09:44:36;5.05;;;4.65;;
5819;SDS011;2936;47.348;9.640;2023-11-21T09:47:07;6.18;;;5.70;;
5819;SDS011;2936;47.348;9.640;2023-11-21T09:49:36;7.55;;;5.78;;
5819;SDS011;2936;47.348;9.640;2023-11-21T09:52:06;5.38;;;5.00;;
5819;SDS011;2936;47.348;9.640;2023-11-21T09:54:35;7.28;;;5.13;;
5819;SDS011;2936;47.348;9.640;2023-11-21T09:57:03;8.68;;;6.50;;
5819;SDS011;2936;47.348;9.640;2023-11-21T09:59:31;6.95;;;6.28;;
5819;SDS011;2936;47.348;9.640;2023-11-21T10:01:59;5.85;;;5.35;;
5819;SDS011;2936;47.348;9.640;2023-11-21T10:04:27;9.68;;;6.28;;
5819;SDS011;2936;47.348;9.640;2023-11-21T10:06:55;6.25;;;5.70;;
5819;SDS011;2936;47.348;9.640;2023-11-21T10:09:25;5.95;;;5.55;;
5819;SDS011;2936;47.348;9.640;2023-11-21T10:11:53;8.15;;;5.47;;
5819;SDS011;2936;47.348;9.640;2023-11-21T10:14:21;6.85;;;5.20;;
5819;SDS011;2936;47.348;9.640;2023-11-21T10:16:54;5.88;;;4.85;;
5819;SDS011;2936;47.348;9.640;2023-11-21T10:19:22;6.72;;;4.15;;
5819;SDS011;2936;47.348;9.640;2023-11-21T10:21:51;5.35;;;4.47;;
5819;SDS011;2936;47.348;9.640;2023-11-21T10:24:19;4.40;;;4.10;;
5819;SDS011;2936;47.348;9.640;2023-11-21T10:26:48;5.75;;;4.35;;
5819;SDS011;2936;47.348;9.640;2023-11-21T10:29:17;4.40;;;4.10;;
5819;SDS011;2936;47.348;9.640;2023-11-21T10:31:48;6.38;;;3.80;;
5819;SDS011;2936;47.348;9.640;2023-11-21T10:34:16;7.40;;;3.97;;
5819;SDS011;2936;47.348;9.640;2023-11-21T10:36:45;4.10;;;3.90;;
5819;SDS011;2936;47.348;9.640;2023-11-21T10:39:13;5.47;;;3.55;;
5819;SDS011;2936;47.348;9.640;2023-11-21T10:41:44;3.40;;;3.20;;
5819;SDS011;2936;47.348;9.640;2023-11-21T10:44:15;3.47;;;3.20;;
5819;SDS011;2936;47.348;9.640;2023-11-21T10:46:46;4.13;;;3.72;;
5819;SDS011;2936;47.348;9.640;2023-11-21T10:49:16;3.53;;;3.42;;
5819;SDS011;2936;47.348;9.640;2023-11-21T10:51:44;4.28;;;3.97;;
5819;SDS011;2936;47.348;9.640;2023-11-21T10:54:16;4.00;;;3.80;;
5819;SDS011;2936;47.348;9.640;2023-11-21T10:56:45;3.83;;;3.53;;
5819;SDS011;2936;47.348;9.640;2023-11-21T10:59:17;4.40;;;4.05;;
5819;SDS011;2936;47.348;9.640;2023-11-21T11:01:46;3.30;;;3.20;;
5819;SDS011;2936;47.348;9.640;2023-11-21T11:04:18;4.00;;;3.70;;
5819;SDS011;2936;47.348;9.640;2023-11-21T11:06:50;4.60;;;4.30;;
5819;SDS011;2936;47.348;9.640;2023-11-21T11:09:18;5.32;;;4.35;;
5819;SDS011;2936;47.348;9.640;2023-11-21T11:11:48;8.50;;;4.32;;
5819;SDS011;2936;47.348;9.640;2023-11-21T11:14:15;3.80;;;3.60;;
5819;SDS011;2936;47.348;9.640;2023-11-21T11:16:46;3.95;;;3.80;;
5819;SDS011;2936;47.348;9.640;2023-11-21T11:19:14;4.13;;;3.92;;
5819;SDS011;2936;47.348;9.640;2023-11-21T11:21:45;3.50;;;3.30;;
5819;SDS011;2936;47.348;9.640;2023-11-21T11:24:24;4.32;;;4.03;;
5819;SDS011;2936;47.348;9.640;2023-11-21T11:26:56;4.15;;;3.75;;
5819;SDS011;2936;47.348;9.640;2023-11-21T11:29:27;3.88;;;3.60;;
5819;SDS011;2936;47.348;9.640;2023-11-21T11:32:03;5.13;;;3.50;;
5819;SDS011;2936;47.348;9.640;2023-11-21T11:34:35;6.40;;;4.65;;
5819;SDS011;2936;47.348;9.640;2023-11-21T11:37:05;4.10;;;3.90;;
5819;SDS011;2936;47.348;9.640;2023-11-21T11:39:35;3.75;;;3.45;;
5819;SDS011;2936;47.348;9.640;2023-11-21T11:42:02;3.50;;;3.25;;
5819;SDS011;2936;47.348;9.640;2023-11-21T11:44:49;2.70;;;2.60;;
5819;SDS011;2936;47.348;9.640;2023-11-21T11:47:25;3.25;;;3.05;;
5819;SDS011;2936;47.348;9.640;2023-11-21T11:49:58;2.55;;;2.40;;
5819;SDS011;2936;47.348;9.640;2023-11-21T11:52:33;3.33;;;3.10;;
5819;SDS011;2936;47.348;9.640;2023-11-21T11:55:01;2.75;;;2.65;;
5819;SDS011;2936;47.348;9.640;2023-11-21T11:57:30;2.80;;;2.70;;
5819;SDS011;2936;47.348;9.640;2023-11-21T12:02:53;3.40;;;3.13;;
5819;SDS011;2936;47.348;9.640;2023-11-21T12:05:22;3.60;;;3.03;;
5819;SDS011;2936;47.348;9.640;2023-11-21T12:07:53;17.58;;;2.70;;
5819;SDS011;2936;47.348;9.640;2023-11-21T12:10:23;2.55;;;2.45;;
5819;SDS011;2936;47.348;9.640;2023-11-21T12:12:51;1.70;;;1.70;;
5819;SDS011;2936;47.348;9.640;2023-11-21T12:15:19;2.40;;;2.30;;
5819;SDS011;2936;47.348;9.640;2023-11-21T12:17:47;3.10;;;2.72;;
5819;SDS011;2936;47.348;9.640;2023-11-21T12:20:18;2.90;;;2.78;;
5819;SDS011;2936;47.348;9.640;2023-11-21T12:22:46;2.55;;;2.45;;
5819;SDS011;2936;47.348;9.640;2023-11-21T12:25:17;2.45;;;2.35;;
5819;SDS011;2936;47.348;9.640;2023-11-21T12:27:45;2.00;;;2.00;;
5819;SDS011;2936;47.348;9.640;2023-11-21T12:30:15;4.70;;;2.60;;
5819;SDS011;2936;47.348;9.640;2023-11-21T12:32:43;1.92;;;1.90;;
5819;SDS011;2936;47.348;9.640;2023-11-21T12:35:13;2.42;;;2.33;;
5819;SDS011;2936;47.348;9.640;2023-11-21T12:37:46;2.13;;;2.03;;
5819;SDS011;2936;47.348;9.640;2023-11-21T12:40:14;1.90;;;1.90;;
5819;SDS011;2936;47.348;9.640;2023-11-21T12:42:43;3.05;;;2.25;;
5819;SDS011;2936;47.348;9.640;2023-11-21T12:45:18;2.30;;;2.20;;
5819;SDS011;2936;47.348;9.640;2023-11-21T12:47:46;2.70;;;2.60;;
5819;SDS011;2936;47.348;9.640;2023-11-21T12:50:15;2.33;;;2.22;;
5819;SDS011;2936;47.348;9.640;2023-11-21T12:52:49;5.72;;;3.38;;
5819;SDS011;2936;47.348;9.640;2023-11-21T12:55:19;3.30;;;3.08;;
5819;SDS011;2936;47.348;9.640;2023-11-21T12:57:47;2.33;;;2.22;;
5819;SDS011;2936;47.348;9.640;2023-11-21T13:00:17;2.20;;;2.10;;
5819;SDS011;2936;47.348;9.640;2023-11-21T13:02:52;1.98;;;1.88;;
5819;SDS011;2936;47.348;9.640;2023-11-21T13:05:28;1.80;;;1.80;;
5819;SDS011;2936;47.348;9.640;2023-11-21T13:07:58;2.38;;;2.28;;
5819;SDS011;2936;47.348;9.640;2023-11-21T13:10:28;2.92;;;2.80;;
5819;SDS011;2936;47.348;9.640;2023-11-21T13:12:56;5.15;;;3.45;;
5819;SDS011;2936;47.348;9.640;2023-11-21T13:15:25;5.47;;;2.33;;
5819;SDS011;2936;47.348;9.640;2023-11-21T13:17:53;2.05;;;2.05;;
5819;SDS011;2936;47.348;9.640;2023-11-21T13:20:22;2.10;;;2.10;;
5819;SDS011;2936;47.348;9.640;2023-11-21T13:22:51;2.22;;;2.13;;
5819;SDS011;2936;47.348;9.640;2023-11-21T13:25:21;2.05;;;2.00;;
5819;SDS011;2936;47.348;9.640;2023-11-21T13:27:48;2.65;;;2.55;;
5819;SDS011;2936;47.348;9.640;2023-11-21T13:30:16;2.20;;;2.10;;
5819;SDS011;2936;47.348;9.640;2023-11-21T13:32:48;2.47;;;2.38;;
5819;SDS011;2936;47.348;9.640;2023-11-21T13:35:17;2.15;;;2.05;;
5819;SDS011;2936;47.348;9.640;2023-11-21T13:37:49;2.00;;;1.90;;
5819;SDS011;2936;47.348;9.640;2023-11-21T13:40:22;2.22;;;2.13;;
5819;SDS011;2936;47.348;9.640;2023-11-21T13:42:52;2.00;;;2.00;;
5819;SDS011;2936;47.348;9.640;2023-11-21T13:45:20;2.30;;;2.20;;
5819;SDS011;2936;47.348;9.640;2023-11-21T13:47:48;2.03;;;2.00;;
5819;SDS011;2936;47.348;9.640;2023-11-21T13:50:18;5.47;;;2.40;;
5819;SDS011;2936;47.348;9.640;2023-11-21T13:52:48;2.10;;;2.03;;
5819;SDS011;2936;47.348;9.640;2023-11-21T13:55:18;2.33;;;2.22;;
5819;SDS011;2936;47.348;9.640;2023-11-21T13:57:50;2.28;;;2.17;;
5819;SDS011;2936;47.348;9.640;2023-11-21T14:00:18;2.20;;;2.10;;
5819;SDS011;2936;47.348;9.640;2023-11-21T14:03:10;2.50;;;2.40;;
5819;SDS011;2936;47.348;9.640;2023-11-21T14:05:46;2.08;;;2.08;;
5819;SDS011;2936;47.348;9.640;2023-11-21T14:08:17;4.22;;;2.70;;
5819;SDS011;2936;47.348;9.640;2023-11-21T14:10:45;2.97;;;2.30;;
5819;SDS011;2936;47.348;9.640;2023-11-21T14:13:17;4.63;;;2.45;;
5819;SDS011;2936;47.348;9.640;2023-11-21T14:15:48;5.25;;;2.30;;
5819;SDS011;2936;47.348;9.640;2023-11-21T14:18:21;3.65;;;3.55;;
5819;SDS011;2936;47.348;9.640;2023-11-21T14:20:56;3.20;;;3.00;;
5819;SDS011;2936;47.348;9.640;2023-11-21T14:23:24;3.35;;;3.25;;
5819;SDS011;2936;47.348;9.640;2023-11-21T14:25:52;2.72;;;2.63;;
5819;SDS011;2936;47.348;9.640;2023-11-21T14:28:21;3.75;;;3.65;;
5819;SDS011;2936;47.348;9.640;2023-11-21T14:30:48;2.40;;;2.30;;
5819;SDS011;2936;47.348;9.640;2023-11-21T14:33:16;2.72;;;2.63;;
5819;SDS011;2936;47.348;9.640;2023-11-21T14:35:43;2.90;;;2.75;;
5819;SDS011;2936;47.348;9.640;2023-11-21T14:38:12;2.75;;;2.65;;
5819;SDS011;2936;47.348;9.640;2023-11-21T14:40:40;2.28;;;2.25;;
5819;SDS011;2936;47.348;9.640;2023-11-21T14:43:07;2.63;;;2.53;;
5819;SDS011;2936;47.348;9.640;2023-11-21T14:45:36;2.78;;;2.55;;
5819;SDS011;2936;47.348;9.640;2023-11-21T14:48:04;7.18;;;2.72;;
5819;SDS011;2936;47.348;9.640;2023-11-21T14:50:40;2.70;;;2.60;;
5819;SDS011;2936;47.348;9.640;2023-11-21T14:53:42;2.80;;;2.70;;
5819;SDS011;2936;47.348;9.640;2023-11-21T14:56:18;3.28;;;3.17;;
5819;SDS011;2936;47.348;9.640;2023-11-21T14:58:52;6.55;;;2.90;;
5819;SDS011;2936;47.348;9.640;2023-11-21T15:01:21;3.63;;;2.72;;
5819;SDS011;2936;47.348;9.640;2023-11-21T15:04:00;3.00;;;2.80;;
5819;SDS011;2936;47.348;9.640;2023-11-21T15:06:28;3.25;;;3.15;;
5819;SDS011;2936;47.348;9.640;2023-11-21T15:08:56;3.10;;;2.85;;
5819;SDS011;2936;47.348;9.640;2023-11-21T15:11:37;3.17;;;3.03;;
5819;SDS011;2936;47.348;9.640;2023-11-21T15:14:04;3.22;;;3.03;;
5819;SDS011;2936;47.348;9.640;2023-11-21T15:16:34;3.08;;;2.83;;
5819;SDS011;2936;47.348;9.640;2023-11-21T15:19:05;2.80;;;2.70;;
5819;SDS011;2936;47.348;9.640;2023-11-21T15:21:35;3.33;;;3.17;;
5819;SDS011;2936;47.348;9.640;2023-11-21T15:24:02;3.15;;;2.95;;
5819;SDS011;2936;47.348;9.640;2023-11-21T15:26:31;3.50;;;3.30;;
5819;SDS011;2936;47.348;9.640;2023-11-21T15:28:59;3.10;;;2.90;;